sensor_id;sensor_type;location;lat;lon;timestamp;pressure;altitude;pressure_sealevel;temperature;humidity
21449;BME280;10885;52.830;13.788;2022-08-01T04:04:08;100734.00;;;19.67;51.76
21449;BME280;10885;52.830;13.788;2022-08-01T04:09:11;100727.19;;;19.71;51.72
21449;BME280;10885;52.830;13.788;2022-08-01T04:14:15;100738.34;;;19.67;52.15
21449;BME280;10885;52.830;13.788;2022-08-01T04:19:17;100734.09;;;19.71;52.30
21449;BME280;10885;52.830;13.788;2022-08-01T04:24:20;100735.91;;;19.72;52.53
21449;BME280;10885;52.830;13.788;2022-08-01T04:29:26;100740.38;;;19.79;52.41
21449;BME280;10885;52.830;13.788;2022-08-01T04:34:31;100737.78;;;19.79;53.32
21449;BME280;10885;52.830;13.788;2022-08-01T04:39:37;100736.03;;;19.78;52.91
21449;BME280;10885;52.830;13.788;2022-08-01T04:44:52;100744.94;;;19.89;52.97
21449;BME280;10885;52.830;13.788;2022-08-01T04:49:54;100738.28;;;20.02;52.81
21449;BME280;10885;52.830;13.788;2022-08-01T04:54:58;100744.66;;;20.16;52.78
21449;BME280;10885;52.830;13.788;2022-08-01T05:00:01;100751.75;;;20.25;52.58
21449;BME280;10885;52.830;13.788;2022-08-01T05:05:04;100741.63;;;20.39;52.46
21449;BME280;10885;52.830;13.788;2022-08-01T05:10:10;100751.50;;;20.55;52.55
21449;BME280;10885;52.830;13.788;2022-08-01T05:15:12;100756.84;;;20.60;52.41
21449;BME280;10885;52.830;13.788;2022-08-01T05:20:16;100755.25;;;20.68;52.66
21449;BME280;10885;52.830;13.788;2022-08-01T05:25:19;100758.78;;;20.72;52.43
21449;BME280;10885;52.830;13.788;2022-08-01T05:30:41;100760.69;;;20.80;52.44
21449;BME280;10885;52.830;13.788;2022-08-01T05:35:43;100758.16;;;20.83;52.65
21449;BME280;10885;52.830;13.788;2022-08-01T05:40:50;100763.31;;;20.82;52.67
21449;BME280;10885;52.830;13.788;2022-08-01T05:45:52;100760.00;;;20.89;52.87
21449;BME280;10885;52.830;13.788;2022-08-01T05:50:55;100758.19;;;20.86;53.21
21449;BME280;10885;52.830;13.788;2022-08-01T05:56:00;100759.84;;;20.81;53.08
21449;BME280;10885;52.830;13.788;2022-08-01T06:01:03;100765.94;;;20.82;53.13
21449;BME280;10885;52.830;13.788;2022-08-01T06:06:06;100772.22;;;20.93;53.41
21449;BME280;10885;52.830;13.788;2022-08-01T06:11:08;100774.00;;;20.96;53.49
21449;BME280;10885;52.830;13.788;2022-08-01T06:16:15;100782.75;;;20.99;53.26
21449;BME280;10885;52.830;13.788;2022-08-01T06:21:17;100791.53;;;21.06;53.22
21449;BME280;10885;52.830;13.788;2022-08-01T06:26:20;100790.78;;;21.12;53.71
21449;BME280;10885;52.830;13.788;2022-08-01T06:31:22;100796.94;;;21.15;53.98
21449;BME280;10885;52.830;13.788;2022-08-01T06:36:24;100798.91;;;21.30;53.13
21449;BME280;10885;52.830;13.788;2022-08-01T06:41:27;100804.13;;;21.30;53.23
21449;BME280;10885;52.830;13.788;2022-08-01T06:46:29;100802.91;;;21.60;52.96
21449;BME280;10885;52.830;13.788;2022-08-01T06:51:35;100798.50;;;21.56;52.90
21449;BME280;10885;52.830;13.788;2022-08-01T06:56:38;100799.06;;;21.39;52.86
21449;BME280;10885;52.830;13.788;2022-08-01T07:01:40;100798.31;;;21.43;53.27
21449;BME280;10885;52.830;13.788;2022-08-01T07:06:43;100803.75;;;21.57;52.91
21449;BME280;10885;52.830;13.788;2022-08-01T07:11:45;100803.22;;;21.81;52.79
21449;BME280;10885;52.830;13.788;2022-08-01T07:16:48;100802.25;;;21.73;52.95
21449;BME280;10885;52.830;13.788;2022-08-01T07:21:50;100798.78;;;22.35;52.69
21449;BME280;10885;52.830;13.788;2022-08-01T07:26:53;100792.22;;;23.60;51.01
21449;BME280;10885;52.830;13.788;2022-08-01T07:31:57;100793.47;;;24.25;50.29
21449;BME280;10885;52.830;13.788;2022-08-01T07:37:00;100802.44;;;24.84;49.02
21449;BME280;10885;52.830;13.788;2022-08-01T07:42:02;100806.03;;;25.54;47.77
21449;BME280;10885;52.830;13.788;2022-08-01T07:47:08;100802.53;;;25.32;48.12
21449;BME280;10885;52.830;13.788;2022-08-01T07:52:11;100797.16;;;24.58;48.75
21449;BME280;10885;52.830;13.788;2022-08-01T07:57:13;100798.09;;;24.81;48.33
21449;BME280;10885;52.830;13.788;2022-08-01T08:02:15;100804.06;;;24.44;48.66
21449;BME280;10885;52.830;13.788;2022-08-01T08:07:18;100811.63;;;23.88;49.41
21449;BME280;10885;52.830;13.788;2022-08-01T08:12:20;100820.94;;;23.54;50.17
21449;BME280;10885;52.830;13.788;2022-08-01T08:17:31;100824.19;;;23.27;50.42
21449;BME280;10885;52.830;13.788;2022-08-01T08:22:37;100830.94;;;23.03;51.10
21449;BME280;10885;52.830;13.788;2022-08-01T08:27:39;100840.38;;;22.93;50.98
21449;BME280;10885;52.830;13.788;2022-08-01T08:32:42;100828.78;;;22.68;51.48
21449;BME280;10885;52.830;13.788;2022-08-01T08:37:44;100831.41;;;22.68;51.61
21449;BME280;10885;52.830;13.788;2022-08-01T08:42:50;100843.97;;;23.00;51.97
21449;BME280;10885;52.830;13.788;2022-08-01T08:47:56;100838.53;;;22.83;51.45
21449;BME280;10885;52.830;13.788;2022-08-01T08:53:00;100847.84;;;22.61;51.73
21449;BME280;10885;52.830;13.788;2022-08-01T08:58:12;100840.88;;;22.61;51.88
21449;BME280;10885;52.830;13.788;2022-08-01T09:03:14;100845.81;;;23.09;51.52
21449;BME280;10885;52.830;13.788;2022-08-01T09:08:17;100851.38;;;24.79;49.65
21449;BME280;10885;52.830;13.788;2022-08-01T09:13:19;100849.69;;;24.99;48.23
21449;BME280;10885;52.830;13.788;2022-08-01T09:23:35;100861.81;;;24.73;49.28
21449;BME280;10885;52.830;13.788;2022-08-01T09:28:54;100868.94;;;25.14;47.63
21449;BME280;10885;52.830;13.788;2022-08-01T09:33:59;100864.53;;;24.97;47.72
21449;BME280;10885;52.830;13.788;2022-08-01T09:39:12;100874.88;;;24.60;48.35
21449;BME280;10885;52.830;13.788;2022-08-01T09:44:16;100874.75;;;24.37;49.04
21449;BME280;10885;52.830;13.788;2022-08-01T09:49:41;100885.09;;;24.16;49.02
21449;BME280;10885;52.830;13.788;2022-08-01T09:55:06;100879.97;;;24.30;49.67
21449;BME280;10885;52.830;13.788;2022-08-01T10:00:17;100880.00;;;24.42;49.41
21449;BME280;10885;52.830;13.788;2022-08-01T10:05:41;100880.09;;;24.54;48.91
21449;BME280;10885;52.830;13.788;2022-08-01T10:11:10;100885.38;;;24.57;50.28
21449;BME280;10885;52.830;13.788;2022-08-01T10:16:14;100895.97;;;24.88;48.41
21449;BME280;10885;52.830;13.788;2022-08-01T10:21:17;100897.81;;;25.15;48.42
21449;BME280;10885;52.830;13.788;2022-08-01T10:26:41;100909.88;;;24.75;48.54
21449;BME280;10885;52.830;13.788;2022-08-01T10:31:47;100918.31;;;24.21;48.92
21449;BME280;10885;52.830;13.788;2022-08-01T10:36:51;100913.41;;;23.56;50.30
21449;BME280;10885;52.830;13.788;2022-08-01T10:41:55;100916.59;;;23.27;50.96
21449;BME280;10885;52.830;13.788;2022-08-01T10:47:04;100916.44;;;23.13;51.49
21449;BME280;10885;52.830;13.788;2022-08-01T10:52:18;100913.00;;;23.17;52.84
21449;BME280;10885;52.830;13.788;2022-08-01T10:57:21;100916.38;;;23.07;51.67
21449;BME280;10885;52.830;13.788;2022-08-01T11:02:29;100920.88;;;23.19;52.00
21449;BME280;10885;52.830;13.788;2022-08-01T11:07:43;100927.06;;;23.29;51.77
21449;BME280;10885;52.830;13.788;2022-08-01T11:12:47;100928.19;;;23.52;51.43
21449;BME280;10885;52.830;13.788;2022-08-01T11:17:51;100932.94;;;23.92;50.78
21449;BME280;10885;52.830;13.788;2022-08-01T11:39:10;100946.03;;;25.87;48.75
21449;BME280;10885;52.830;13.788;2022-08-01T11:44:17;100949.56;;;26.12;47.60
21449;BME280;10885;52.830;13.788;2022-08-01T11:59:53;100957.38;;;25.49;48.04
21449;BME280;10885;52.830;13.788;2022-08-01T12:05:16;100962.38;;;24.84;49.25
21449;BME280;10885;52.830;13.788;2022-08-01T12:10:30;100966.47;;;24.45;49.93
21449;BME280;10885;52.830;13.788;2022-08-01T12:15:50;100968.41;;;24.71;49.36
21449;BME280;10885;52.830;13.788;2022-08-01T12:21:02;100969.22;;;24.56;50.03
21449;BME280;10885;52.830;13.788;2022-08-01T12:26:06;100972.75;;;24.59;49.74
21449;BME280;10885;52.830;13.788;2022-08-01T12:31:09;100973.75;;;24.86;49.85
21449;BME280;10885;52.830;13.788;2022-08-01T12:36:27;100981.59;;;24.85;49.89
21449;BME280;10885;52.830;13.788;2022-08-01T12:41:29;100986.63;;;24.51;50.17
21449;BME280;10885;52.830;13.788;2022-08-01T12:46:32;100986.66;;;24.52;50.02
21449;BME280;10885;52.830;13.788;2022-08-01T12:51:35;100985.72;;;24.49;49.96
21449;BME280;10885;52.830;13.788;2022-08-01T12:56:37;100997.25;;;24.68;49.75
21449;BME280;10885;52.830;13.788;2022-08-01T13:01:40;100985.19;;;25.05;49.42
21449;BME280;10885;52.830;13.788;2022-08-01T13:06:44;100991.59;;;26.07;48.68
21449;BME280;10885;52.830;13.788;2022-08-01T13:11:46;100985.91;;;27.60;46.33
21449;BME280;10885;52.830;13.788;2022-08-01T13:17:05;100991.34;;;27.19;45.63
21449;BME280;10885;52.830;13.788;2022-08-01T13:22:09;100992.34;;;26.91;46.14
21449;BME280;10885;52.830;13.788;2022-08-01T13:27:20;100984.56;;;26.28;47.21
21449;BME280;10885;52.830;13.788;2022-08-01T13:32:25;100994.16;;;25.73;48.33
21449;BME280;10885;52.830;13.788;2022-08-01T13:37:33;100988.91;;;25.69;48.21
21449;BME280;10885;52.830;13.788;2022-08-01T13:42:38;101000.28;;;25.82;48.69
21449;BME280;10885;52.830;13.788;2022-08-01T13:47:43;100993.31;;;25.87;48.33
21449;BME280;10885;52.830;13.788;2022-08-01T13:53:06;101001.22;;;26.19;47.84
21449;BME280;10885;52.830;13.788;2022-08-01T13:58:08;101001.19;;;26.68;47.28
21449;BME280;10885;52.830;13.788;2022-08-01T14:03:10;100995.88;;;26.84;46.61
21449;BME280;10885;52.830;13.788;2022-08-01T14:08:13;101009.06;;;25.84;47.61
21449;BME280;10885;52.830;13.788;2022-08-01T14:13:15;101027.03;;;24.82;50.30
21449;BME280;10885;52.830;13.788;2022-08-01T14:18:18;101031.94;;;24.39;51.69
21449;BME280;10885;52.830;13.788;2022-08-01T14:23:20;101032.75;;;24.30;52.04
21449;BME280;10885;52.830;13.788;2022-08-01T14:28:23;101031.25;;;24.55;51.95
21449;BME280;10885;52.830;13.788;2022-08-01T14:33:26;101045.28;;;24.67;51.85
21449;BME280;10885;52.830;13.788;2022-08-01T14:38:29;101042.75;;;24.82;51.12
21449;BME280;10885;52.830;13.788;2022-08-01T14:43:35;101052.47;;;24.97;50.71
21449;BME280;10885;52.830;13.788;2022-08-01T14:48:37;101058.66;;;25.16;50.74
21449;BME280;10885;52.830;13.788;2022-08-01T14:53:40;101052.56;;;25.20;50.47
21449;BME280;10885;52.830;13.788;2022-08-01T14:58:51;101052.69;;;25.40;49.72
21449;BME280;10885;52.830;13.788;2022-08-01T15:03:54;101056.28;;;25.67;49.74
21449;BME280;10885;52.830;13.788;2022-08-01T15:08:57;101055.50;;;25.95;48.79
21449;BME280;10885;52.830;13.788;2022-08-01T15:14:00;101053.75;;;26.30;48.44
21449;BME280;10885;52.830;13.788;2022-08-01T15:19:21;101054.66;;;26.36;48.20
21449;BME280;10885;52.830;13.788;2022-08-01T15:24:23;101058.09;;;25.85;48.46
21449;BME280;10885;52.830;13.788;2022-08-01T15:29:26;101064.06;;;25.44;49.44
21449;BME280;10885;52.830;13.788;2022-08-01T15:34:28;101060.38;;;25.08;49.87
21449;BME280;10885;52.830;13.788;2022-08-01T15:39:32;101063.69;;;24.76;49.77
21449;BME280;10885;52.830;13.788;2022-08-01T15:44:35;101066.25;;;24.67;49.99
21449;BME280;10885;52.830;13.788;2022-08-01T15:49:38;101059.50;;;25.04;49.80
21449;BME280;10885;52.830;13.788;2022-08-01T15:54:40;101068.56;;;25.82;48.41
21449;BME280;10885;52.830;13.788;2022-08-01T15:59:44;101069.41;;;25.67;47.64
21449;BME280;10885;52.830;13.788;2022-08-01T16:04:46;101074.59;;;25.45;48.07
21449;BME280;10885;52.830;13.788;2022-08-01T16:09:48;101067.53;;;25.33;47.95
21449;BME280;10885;52.830;13.788;2022-08-01T16:14:51;101071.94;;;25.37;48.07
21449;BME280;10885;52.830;13.788;2022-08-01T16:19:53;101082.41;;;25.40;47.77
21449;BME280;10885;52.830;13.788;2022-08-01T16:24:56;101073.63;;;25.23;47.90
21449;BME280;10885;52.830;13.788;2022-08-01T16:30:02;101077.13;;;25.25;48.15
21449;BME280;10885;52.830;13.788;2022-08-01T16:35:05;101073.63;;;25.32;47.96
21449;BME280;10885;52.830;13.788;2022-08-01T16:40:07;101080.75;;;25.58;47.62
21449;BME280;10885;52.830;13.788;2022-08-01T16:45:11;101076.38;;;25.55;47.20
21449;BME280;10885;52.830;13.788;2022-08-01T16:50:15;101077.13;;;25.28;47.50
21449;BME280;10885;52.830;13.788;2022-08-01T16:55:18;101087.50;;;25.11;47.61
21449;BME280;10885;52.830;13.788;2022-08-01T17:00:24;101088.06;;;24.64;48.56
21449;BME280;10885;52.830;13.788;2022-08-01T17:05:29;101093.13;;;24.44;49.12
21449;BME280;10885;52.830;13.788;2022-08-01T17:10:32;101097.59;;;24.53;49.04
21449;BME280;10885;52.830;13.788;2022-08-01T17:15:35;101090.59;;;24.55;49.22
21449;BME280;10885;52.830;13.788;2022-08-01T17:20:37;101088.00;;;24.55;48.96
21449;BME280;10885;52.830;13.788;2022-08-01T17:25:49;101088.84;;;24.52;49.38
21449;BME280;10885;52.830;13.788;2022-08-01T17:30:51;101094.84;;;24.40;49.26
21449;BME280;10885;52.830;13.788;2022-08-01T17:35:54;101096.50;;;24.32;49.74
21449;BME280;10885;52.830;13.788;2022-08-01T17:40:56;101102.47;;;24.16;49.74
21449;BME280;10885;52.830;13.788;2022-08-01T17:45:58;101111.06;;;24.02;50.11
21449;BME280;10885;52.830;13.788;2022-08-01T17:51:01;101111.84;;;23.95;50.23
21449;BME280;10885;52.830;13.788;2022-08-01T17:56:04;101121.38;;;23.89;50.32
21449;BME280;10885;52.830;13.788;2022-08-01T18:01:08;101121.91;;;23.63;51.04
21449;BME280;10885;52.830;13.788;2022-08-01T18:06:12;101126.09;;;23.49;51.04
21449;BME280;10885;52.830;13.788;2022-08-01T18:11:17;101127.69;;;23.36;51.30
21449;BME280;10885;52.830;13.788;2022-08-01T18:16:22;101130.69;;;23.02;51.89
21449;BME280;10885;52.830;13.788;2022-08-01T18:21:24;101135.59;;;22.82;52.13
21449;BME280;10885;52.830;13.788;2022-08-01T18:26:27;101123.97;;;22.65;52.55
21449;BME280;10885;52.830;13.788;2022-08-01T18:31:29;101134.13;;;22.48;52.72
21449;BME280;10885;52.830;13.788;2022-08-01T18:36:31;101140.06;;;22.36;52.92
21449;BME280;10885;52.830;13.788;2022-08-01T18:41:36;101158.88;;;22.21;53.14
21449;BME280;10885;52.830;13.788;2022-08-01T18:46:39;101155.22;;;22.12;53.44
21449;BME280;10885;52.830;13.788;2022-08-01T18:51:41;101155.84;;;22.00;53.59
21449;BME280;10885;52.830;13.788;2022-08-01T18:56:46;101166.91;;;21.88;53.70
21449;BME280;10885;52.830;13.788;2022-08-01T19:01:48;101171.84;;;21.74;54.06
21449;BME280;10885;52.830;13.788;2022-08-01T19:06:51;101178.56;;;21.61;54.07
21449;BME280;10885;52.830;13.788;2022-08-01T19:11:53;101179.97;;;21.47;54.09
21449;BME280;10885;52.830;13.788;2022-08-01T19:16:56;101186.28;;;21.19;54.59
21449;BME280;10885;52.830;13.788;2022-08-01T19:21:58;101194.53;;;21.01;55.04
21449;BME280;10885;52.830;13.788;2022-08-01T19:27:04;101195.34;;;21.00;55.04
21449;BME280;10885;52.830;13.788;2022-08-01T19:32:10;101197.63;;;20.86;55.22
21449;BME280;10885;52.830;13.788;2022-08-01T19:37:13;101209.47;;;20.75;55.47
21449;BME280;10885;52.830;13.788;2022-08-01T19:42:17;101218.47;;;20.54;55.87
21449;BME280;10885;52.830;13.788;2022-08-01T19:47:21;101225.97;;;20.42;56.20
21449;BME280;10885;52.830;13.788;2022-08-01T19:52:24;101227.31;;;20.27;56.20
21449;BME280;10885;52.830;13.788;2022-08-01T19:57:27;101244.44;;;20.19;56.56
21449;BME280;10885;52.830;13.788;2022-08-01T20:02:48;101234.34;;;20.01;56.77
21449;BME280;10885;52.830;13.788;2022-08-01T20:07:52;101242.66;;;19.88;57.11
21449;BME280;10885;52.830;13.788;2022-08-01T20:12:56;101244.78;;;19.73;57.18
21449;BME280;10885;52.830;13.788;2022-08-01T20:17:59;101251.50;;;19.66;57.66
21449;BME280;10885;52.830;13.788;2022-08-01T20:23:02;101260.44;;;19.74;57.30
21449;BME280;10885;52.830;13.788;2022-08-01T20:28:08;101264.25;;;19.58;57.65
21449;BME280;10885;52.830;13.788;2022-08-01T20:33:11;101265.13;;;19.32;58.09
21449;BME280;10885;52.830;13.788;2022-08-01T20:38:15;101272.50;;;19.19;58.83
21449;BME280;10885;52.830;13.788;2022-08-01T20:43:20;101274.56;;;19.28;58.72
21449;BME280;10885;52.830;13.788;2022-08-01T20:48:26;101273.81;;;19.32;58.89
21449;BME280;10885;52.830;13.788;2022-08-01T20:53:31;101272.63;;;19.22;58.38
21449;BME280;10885;52.830;13.788;2022-08-01T21:09:12;101276.63;;;18.87;59.36
21449;BME280;10885;52.830;13.788;2022-08-01T21:14:19;101282.59;;;18.60;59.82
21449;BME280;10885;52.830;13.788;2022-08-01T21:19:26;101292.06;;;18.58;59.87
21449;BME280;10885;52.830;13.788;2022-08-01T21:24:38;101300.94;;;18.65;60.07
21449;BME280;10885;52.830;13.788;2022-08-01T21:29:44;101309.31;;;18.58;59.78
21449;BME280;10885;52.830;13.788;2022-08-01T21:34:50;101308.22;;;18.51;59.82
21449;BME280;10885;52.830;13.788;2022-08-01T21:39:52;101328.41;;;18.36;60.12
21449;BME280;10885;52.830;13.788;2022-08-01T21:45:01;101333.06;;;18.22;60.94
